Time;durP1;ratioP1;P1;durP2;ratioP2;P2;SDS_P1;SDS_P2;PMS_P1;PMS_P2;Temp;Humidity;BMP_temperature;BMP_pressure;BME280_temperature;BME280_humidity;BME280_pressure;Samples;Min_cycle;Max_cycle;Signal;HPM_P1;HPM_P2
2022/08/28 00:00:01;;;;;;;5.25;1.67;;;;;;;;;;5017684;28;20040;-44
2022/08/28 00:02:27;;;;;;;4.80;2.10;;;;;;;;;;5023684;28;20037;-46
2022/08/28 00:04:54;;;;;;;5.97;1.83;;;;;;;;;;5037159;28;20044;-44
2022/08/28 00:07:20;;;;;;;10.70;2.42;;;;;;;;;;5040160;28;20178;-45
2022/08/28 00:09:48;;;;;;;5.40;1.92;;;;;;;;;;5034182;28;20033;-43
2022/08/28 00:12:15;;;;;;;6.60;1.77;;;;;;;;;;5038754;28;20839;-43
2022/08/28 00:14:41;;;;;;;6.15;2.00;;;;;;;;;;5004873;28;20053;-44
2022/08/28 00:17:08;;;;;;;5.57;1.67;;;;;;;;;;5039598;28;20041;-45
2022/08/28 00:19:34;;;;;;;5.47;1.38;;;;;;;;;;5036752;28;20045;-44
2022/08/28 00:22:03;;;;;;;6.43;1.65;;;;;;;;;;5025694;28;20125;-45
2022/08/28 00:24:29;;;;;;;6.72;2.00;;;;;;;;;;5033548;28;20037;-45
2022/08/28 00:29:48;;;;;;;6.10;1.30;;;;;;;;;;5003941;28;20127;-42
2022/08/28 00:32:14;;;;;;;5.95;1.38;;;;;;;;;;5024856;28;20052;-46
2022/08/28 00:34:41;;;;;;;6.30;1.65;;;;;;;;;;5021443;28;20044;-45
2022/08/28 00:37:07;;;;;;;5.05;1.60;;;;;;;;;;5020504;28;20045;-44
2022/08/28 00:39:34;;;;;;;5.15;1.70;;;;;;;;;;5028041;28;20045;-45
2022/08/28 00:42:01;;;;;;;4.77;1.60;;;;;;;;;;5014489;28;20388;-47
2022/08/28 00:44:28;;;;;;;5.22;1.50;;;;;;;;;;5013633;28;20492;-45
2022/08/28 00:46:56;;;;;;;4.32;0.98;;;;;;;;;;5016009;28;20124;-44
2022/08/28 00:49:25;;;;;;;5.00;1.30;;;;;;;;;;5029637;28;20094;-44
2022/08/28 00:52:08;;;;;;;4.32;1.48;;;;;;;;;;5018086;28;20487;-44
2022/08/28 00:54:35;;;;;;;5.23;1.17;;;;;;;;;;5030563;28;20044;-47
2022/08/28 00:57:05;;;;;;;5.20;1.40;;;;;;;;;;5031198;28;20044;-46
2022/08/28 00:59:32;;;;;;;4.97;1.45;;;;;;;;;;5035424;28;20099;-43
2022/08/28 01:01:59;;;;;;;5.28;1.17;;;;;;;;;;5004340;28;20041;-44
2022/08/28 01:04:28;;;;;;;6.05;1.30;;;;;;;;;;5026734;28;20049;-43
2022/08/28 01:06:56;;;;;;;5.70;1.40;;;;;;;;;;5020124;28;20029;-42
2022/08/28 01:09:24;;;;;;;5.13;1.13;;;;;;;;;;5030880;28;20040;-42
2022/08/28 01:11:53;;;;;;;3.97;1.20;;;;;;;;;;5027371;28;20110;-46
2022/08/28 01:14:22;;;;;;;5.72;1.40;;;;;;;;;;5031662;28;20520;-46
2022/08/28 01:16:51;;;;;;;5.40;1.63;;;;;;;;;;5023567;28;20095;-46
2022/08/28 01:19:21;;;;;;;6.63;1.60;;;;;;;;;;5038143;28;20048;-45
2022/08/28 01:21:52;;;;;;;6.22;1.25;;;;;;;;;;5017089;28;20037;-43
2022/08/28 01:24:20;;;;;;;6.28;1.80;;;;;;;;;;5033190;28;20049;-44
2022/08/28 01:26:47;;;;;;;5.70;1.55;;;;;;;;;;5036233;28;20044;-42
2022/08/28 01:29:14;;;;;;;7.97;1.70;;;;;;;;;;5018254;28;20033;-45
2022/08/28 01:31:40;;;;;;;5.43;1.37;;;;;;;;;;5022411;28;20518;-42
2022/08/28 01:34:08;;;;;;;6.70;1.63;;;;;;;;;;5031660;28;20029;-45
2022/08/28 01:36:35;;;;;;;7.28;1.90;;;;;;;;;;5028026;28;20185;-43
2022/08/28 01:39:04;;;;;;;4.72;1.60;;;;;;;;;;5009012;28;20029;-47
2022/08/28 01:41:32;;;;;;;7.20;1.63;;;;;;;;;;5019745;28;20052;-43
2022/08/28 01:43:59;;;;;;;6.33;1.40;;;;;;;;;;5032504;28;20048;-46
2022/08/28 01:46:25;;;;;;;5.55;1.40;;;;;;;;;;5020917;28;20045;-42
2022/08/28 01:48:52;;;;;;;5.45;1.42;;;;;;;;;;5021071;28;20041;-42
2022/08/28 01:51:18;;;;;;;4.78;1.77;;;;;;;;;;5028932;28;20514;-42
2022/08/28 01:53:45;;;;;;;7.82;1.80;;;;;;;;;;5031831;28;20475;-44
2022/08/28 01:56:13;;;;;;;4.27;1.73;;;;;;;;;;5033315;28;20040;-42
2022/08/28 01:58:41;;;;;;;4.97;2.08;;;;;;;;;;5018781;28;20048;-44
2022/08/28 02:01:09;;;;;;;5.78;2.05;;;;;;;;;;5007490;28;20396;-43
2022/08/28 02:03:35;;;;;;;6.72;1.67;;;;;;;;;;5031397;28;20133;-46
2022/08/28 02:06:02;;;;;;;5.45;1.77;;;;;;;;;;5024126;28;20052;-44
2022/08/28 02:08:28;;;;;;;7.17;2.60;;;;;;;;;;5021470;28;20128;-43
2022/08/28 02:10:55;;;;;;;4.47;1.70;;;;;;;;;;5033430;28;20119;-42
2022/08/28 02:13:22;;;;;;;4.68;1.50;;;;;;;;;;5033465;28;20238;-45
2022/08/28 02:15:50;;;;;;;7.07;1.90;;;;;;;;;;5032818;28;20063;-44
2022/08/28 02:18:17;;;;;;;5.82;1.52;;;;;;;;;;5036827;28;20044;-42
2022/08/28 02:20:44;;;;;;;7.47;1.37;;;;;;;;;;5032424;28;20127;-44
2022/08/28 02:23:11;;;;;;;4.57;1.63;;;;;;;;;;5036364;28;20037;-45
2022/08/28 02:25:38;;;;;;;6.85;1.77;;;;;;;;;;5030180;28;20053;-43
2022/08/28 02:28:04;;;;;;;5.40;1.90;;;;;;;;;;5006964;28;20136;-43
2022/08/28 02:30:31;;;;;;;6.55;2.00;;;;;;;;;;5033335;28;20067;-42
2022/08/28 02:32:59;;;;;;;8.53;1.80;;;;;;;;;;5033386;28;20083;-44
2022/08/28 02:35:26;;;;;;;5.47;1.60;;;;;;;;;;5032845;28;20049;-43
2022/08/28 02:37:52;;;;;;;7.18;1.80;;;;;;;;;;5009863;28;20034;-44
2022/08/28 02:40:20;;;;;;;4.80;1.65;;;;;;;;;;5023397;28;20632;-43
2022/08/28 02:42:46;;;;;;;4.72;1.83;;;;;;;;;;5018048;28;20047;-46
2022/08/28 02:45:14;;;;;;;4.80;1.70;;;;;;;;;;5029076;28;20044;-43
2022/08/28 02:47:41;;;;;;;4.70;1.58;;;;;;;;;;5033837;28;20045;-44
2022/08/28 02:50:10;;;;;;;8.38;2.25;;;;;;;;;;5289661;22;20084;-44
2022/08/28 02:52:36;;;;;;;5.55;1.95;;;;;;;;;;4958432;28;20037;-48
2022/08/28 02:55:03;;;;;;;6.50;1.90;;;;;;;;;;5017910;28;20117;-46
2022/08/28 02:57:30;;;;;;;5.50;1.53;;;;;;;;;;5011154;28;20505;-47
2022/08/28 02:59:57;;;;;;;5.50;1.98;;;;;;;;;;5013760;28;20034;-45
2022/08/28 03:02:24;;;;;;;7.30;1.92;;;;;;;;;;5023276;28;20040;-48
2022/08/28 03:04:53;;;;;;;6.15;1.73;;;;;;;;;;5031134;28;20051;-44
2022/08/28 03:07:21;;;;;;;6.45;1.75;;;;;;;;;;5031154;28;20124;-44
2022/08/28 03:09:48;;;;;;;4.93;1.50;;;;;;;;;;5006416;28;20079;-43
2022/08/28 03:12:15;;;;;;;5.72;1.60;;;;;;;;;;5020715;28;20037;-45
2022/08/28 03:14:42;;;;;;;7.65;2.22;;;;;;;;;;5013049;28;20040;-47
2022/08/28 03:17:09;;;;;;;6.68;1.88;;;;;;;;;;5022469;28;20037;-46
2022/08/28 03:19:35;;;;;;;5.07;1.45;;;;;;;;;;5020130;28;20041;-44
2022/08/28 03:22:02;;;;;;;5.50;1.87;;;;;;;;;;5041072;28;20041;-45
2022/08/28 03:24:28;;;;;;;5.72;1.58;;;;;;;;;;5026003;28;20397;-46
2022/08/28 03:26:55;;;;;;;6.00;2.03;;;;;;;;;;5028278;28;20052;-44
2022/08/28 03:29:21;;;;;;;4.85;1.50;;;;;;;;;;5032144;28;20133;-49
2022/08/28 03:31:48;;;;;;;4.90;1.67;;;;;;;;;;4998443;28;20037;-44
2022/08/28 03:34:14;;;;;;;5.83;1.63;;;;;;;;;;5029367;28;20049;-45
2022/08/28 03:36:41;;;;;;;7.75;2.03;;;;;;;;;;5029223;28;20652;-45
2022/08/28 03:39:07;;;;;;;5.20;2.10;;;;;;;;;;5022017;28;20475;-48
2022/08/28 03:41:35;;;;;;;7.53;1.73;;;;;;;;;;5029614;28;20060;-46
2022/08/28 03:44:02;;;;;;;7.25;1.83;;;;;;;;;;5008110;28;20037;-48
2022/08/28 03:46:31;;;;;;;8.60;2.37;;;;;;;;;;5024045;28;20065;-46
2022/08/28 03:48:58;;;;;;;7.28;1.73;;;;;;;;;;5028305;28;20055;-46
2022/08/28 03:51:26;;;;;;;5.72;2.13;;;;;;;;;;5043545;28;20059;-45
2022/08/28 03:53:53;;;;;;;5.40;1.65;;;;;;;;;;5020022;28;20482;-49
2022/08/28 03:56:21;;;;;;;5.68;1.85;;;;;;;;;;5022909;28;20100;-44
2022/08/28 03:58:50;;;;;;;5.03;1.70;;;;;;;;;;5038859;28;20064;-44
2022/08/28 04:01:16;;;;;;;4.90;1.77;;;;;;;;;;5036214;28;20086;-46
2022/08/28 04:03:43;;;;;;;5.63;1.70;;;;;;;;;;5029211;28;20383;-44
2022/08/28 04:06:09;;;;;;;5.55;2.00;;;;;;;;;;5023476;28;20037;-45
2022/08/28 04:08:36;;;;;;;5.03;1.50;;;;;;;;;;5049037;28;20093;-46
2022/08/28 04:11:03;;;;;;;6.57;2.40;;;;;;;;;;5041144;28;20045;-47
2022/08/28 04:13:30;;;;;;;7.60;2.20;;;;;;;;;;5040381;28;20043;-45
2022/08/28 04:15:59;;;;;;;5.20;1.90;;;;;;;;;;5037166;28;20040;-44
2022/08/28 04:18:28;;;;;;;6.97;2.35;;;;;;;;;;5044065;28;20047;-45
2022/08/28 04:20:58;;;;;;;7.95;2.10;;;;;;;;;;5036613;28;20040;-45
2022/08/28 04:23:25;;;;;;;5.47;1.80;;;;;;;;;;5027352;28;20041;-45
2022/08/28 04:25:52;;;;;;;6.72;1.80;;;;;;;;;;5049004;28;20045;-44
2022/08/28 04:28:19;;;;;;;8.63;2.30;;;;;;;;;;5030381;28;20059;-48
2022/08/28 04:30:45;;;;;;;6.82;2.05;;;;;;;;;;5058510;28;20036;-44
2022/08/28 04:33:13;;;;;;;5.78;2.00;;;;;;;;;;5042302;28;20449;-46
2022/08/28 04:35:40;;;;;;;5.20;1.90;;;;;;;;;;5055988;28;20485;-46
2022/08/28 04:38:07;;;;;;;7.13;2.17;;;;;;;;;;5040978;28;20037;-45
2022/08/28 04:40:33;;;;;;;7.30;2.20;;;;;;;;;;5041675;28;20048;-44
2022/08/28 04:43:00;;;;;;;7.25;2.03;;;;;;;;;;5046249;28;20559;-45
2022/08/28 04:45:27;;;;;;;6.43;2.17;;;;;;;;;;5050294;28;20043;-46
2022/08/28 04:47:53;;;;;;;5.63;2.00;;;;;;;;;;5013368;28;20487;-45
2022/08/28 04:50:21;;;;;;;6.53;2.30;;;;;;;;;;5036823;28;20053;-46
2022/08/28 04:52:48;;;;;;;5.40;2.10;;;;;;;;;;5017675;28;20041;-44
2022/08/28 04:55:14;;;;;;;6.32;2.13;;;;;;;;;;5026369;28;20037;-46
2022/08/28 04:57:41;;;;;;;5.60;2.17;;;;;;;;;;4999114;28;20079;-45
2022/08/28 05:00:09;;;;;;;6.50;2.30;;;;;;;;;;5016322;28;20046;-45
2022/08/28 05:02:35;;;;;;;7.30;2.30;;;;;;;;;;5023536;28;20033;-47
2022/08/28 05:05:03;;;;;;;6.40;2.42;;;;;;;;;;5016027;28;20044;-47
2022/08/28 05:07:31;;;;;;;9.77;2.13;;;;;;;;;;5015712;28;20487;-45
2022/08/28 05:09:58;;;;;;;7.65;2.50;;;;;;;;;;5030624;28;20048;-46
2022/08/28 05:12:25;;;;;;;7.37;2.07;;;;;;;;;;5010949;28;20033;-44
2022/08/28 05:14:52;;;;;;;5.93;1.65;;;;;;;;;;5028065;28;20498;-45
2022/08/28 05:17:18;;;;;;;5.35;2.10;;;;;;;;;;5028714;28;20041;-45
2022/08/28 05:19:46;;;;;;;5.13;1.33;;;;;;;;;;5035354;28;20044;-50
2022/08/28 05:22:13;;;;;;;5.50;1.70;;;;;;;;;;5004232;28;20037;-45
2022/08/28 05:24:41;;;;;;;6.70;2.37;;;;;;;;;;5036481;28;20037;-46
2022/08/28 05:27:08;;;;;;;7.63;2.20;;;;;;;;;;5017406;28;20144;-48
2022/08/28 05:29:35;;;;;;;7.72;2.63;;;;;;;;;;5022458;28;20048;-49
2022/08/28 05:32:01;;;;;;;6.22;2.20;;;;;;;;;;4991026;28;20030;-47
2022/08/28 05:34:28;;;;;;;7.30;2.03;;;;;;;;;;5027325;28;20469;-46
2022/08/28 05:36:55;;;;;;;6.60;2.23;;;;;;;;;;5004399;28;20573;-47
2022/08/28 05:39:22;;;;;;;7.57;2.22;;;;;;;;;;5026209;28;20284;-47
2022/08/28 05:41:50;;;;;;;7.85;2.05;;;;;;;;;;4988415;28;20050;-51
2022/08/28 05:44:18;;;;;;;8.95;2.90;;;;;;;;;;5029283;28;20227;-47
2022/08/28 05:46:47;;;;;;;6.60;2.17;;;;;;;;;;5020094;28;20041;-46
2022/08/28 05:49:13;;;;;;;8.03;2.20;;;;;;;;;;5016443;28;20403;-46
2022/08/28 05:51:40;;;;;;;8.05;2.45;;;;;;;;;;5042379;28;20449;-46
2022/08/28 05:54:07;;;;;;;5.85;2.13;;;;;;;;;;5034657;28;20044;-49
2022/08/28 05:56:35;;;;;;;5.88;2.17;;;;;;;;;;5054356;28;20482;-45
2022/08/28 05:59:04;;;;;;;6.68;2.78;;;;;;;;;;5023596;28;22668;-48
2022/08/28 06:01:31;;;;;;;5.67;1.90;;;;;;;;;;5032506;28;20136;-46
2022/08/28 06:03:59;;;;;;;6.75;2.85;;;;;;;;;;5035280;28;20044;-45
2022/08/28 06:06:26;;;;;;;7.75;2.75;;;;;;;;;;5052630;28;20044;-48
2022/08/28 06:08:56;;;;;;;6.88;2.33;;;;;;;;;;5036327;28;20453;-47
2022/08/28 06:11:22;;;;;;;9.70;2.22;;;;;;;;;;5047347;28;20047;-47
2022/08/28 06:13:49;;;;;;;7.07;2.67;;;;;;;;;;5039319;28;20101;-45
2022/08/28 06:16:18;;;;;;;7.25;2.60;;;;;;;;;;5041784;28;20029;-43
2022/08/28 06:18:46;;;;;;;7.28;2.53;;;;;;;;;;5039279;28;20119;-46
2022/08/28 06:21:12;;;;;;;6.03;2.30;;;;;;;;;;5040721;28;20052;-44
2022/08/28 06:23:39;;;;;;;6.10;2.40;;;;;;;;;;5026401;28;20032;-47
2022/08/28 06:26:06;;;;;;;6.07;2.00;;;;;;;;;;5046066;28;20056;-43
2022/08/28 06:28:33;;;;;;;6.50;2.75;;;;;;;;;;5028439;28;20044;-45
2022/08/28 06:31:01;;;;;;;5.65;2.10;;;;;;;;;;5030912;28;20597;-46
2022/08/28 06:33:29;;;;;;;7.18;2.40;;;;;;;;;;5041129;28;20051;-48
2022/08/28 06:35:56;;;;;;;6.90;2.15;;;;;;;;;;5045587;28;20774;-45
2022/08/28 06:38:23;;;;;;;7.37;2.40;;;;;;;;;;5028300;28;20037;-44
2022/08/28 06:40:51;;;;;;;7.63;2.58;;;;;;;;;;5027537;28;20075;-44
2022/08/28 06:43:18;;;;;;;7.75;2.38;;;;;;;;;;5044056;28;20097;-46
2022/08/28 06:45:46;;;;;;;7.50;2.15;;;;;;;;;;5045347;28;20040;-47
2022/08/28 06:48:15;;;;;;;6.43;2.60;;;;;;;;;;5019079;28;20040;-46
2022/08/28 06:50:44;;;;;;;9.50;2.43;;;;;;;;;;5047560;28;20052;-47
2022/08/28 06:53:11;;;;;;;9.07;2.25;;;;;;;;;;5038755;28;20037;-50
2022/08/28 06:55:38;;;;;;;5.53;2.05;;;;;;;;;;5047191;28;20509;-45
2022/08/28 06:58:05;;;;;;;5.95;1.90;;;;;;;;;;5025922;28;20103;-47
2022/08/28 07:00:32;;;;;;;6.55;1.98;;;;;;;;;;5021368;28;20442;-44
2022/08/28 07:02:58;;;;;;;5.80;1.60;;;;;;;;;;5029577;28;20044;-47
2022/08/28 07:05:26;;;;;;;5.53;1.27;;;;;;;;;;5050524;28;20041;-47
2022/08/28 07:07:54;;;;;;;6.35;2.00;;;;;;;;;;5057000;28;20161;-47
2022/08/28 07:10:21;;;;;;;5.45;1.63;;;;;;;;;;5035294;28;20048;-47
2022/08/28 07:12:49;;;;;;;7.10;1.67;;;;;;;;;;5046875;28;20100;-45
2022/08/28 07:15:15;;;;;;;4.73;1.70;;;;;;;;;;5013009;28;20044;-46
2022/08/28 07:17:42;;;;;;;5.63;1.90;;;;;;;;;;5055444;28;20044;-43
2022/08/28 07:20:10;;;;;;;6.10;1.83;;;;;;;;;;5023788;28;21242;-46
2022/08/28 07:22:36;;;;;;;6.32;1.50;;;;;;;;;;5053886;28;20052;-46
2022/08/28 07:25:05;;;;;;;5.50;1.58;;;;;;;;;;5044965;28;20498;-43
2022/08/28 07:27:31;;;;;;;5.70;1.73;;;;;;;;;;5028319;28;20468;-47
2022/08/28 07:29:58;;;;;;;5.00;1.25;;;;;;;;;;5016041;28;20464;-47
2022/08/28 07:32:24;;;;;;;5.30;1.88;;;;;;;;;;5058699;28;20421;-49
2022/08/28 07:34:51;;;;;;;6.75;1.30;;;;;;;;;;5048553;28;20124;-45
2022/08/28 07:37:17;;;;;;;4.30;1.40;;;;;;;;;;5043298;28;20040;-48
2022/08/28 07:39:44;;;;;;;5.23;0.90;;;;;;;;;;5030787;28;20417;-47
2022/08/28 07:44:47;;;;;;;5.57;1.25;;;;;;;;;;5050836;28;20539;-47
2022/08/28 07:44:58;;;;;;;3.80;1.13;;;;;;;;;;5036099;28;20041;-46
2022/08/28 07:47:30;;;;;;;5.23;1.00;;;;;;;;;;5045196;28;20055;-48
2022/08/28 07:49:59;;;;;;;10.13;2.23;;;;;;;;;;5046401;28;20389;-47
2022/08/28 07:52:25;;;;;;;5.28;1.13;;;;;;;;;;5041048;28;20135;-47
2022/08/28 07:54:52;;;;;;;4.57;1.20;;;;;;;;;;5058489;28;20611;-46
2022/08/28 07:57:20;;;;;;;4.45;1.00;;;;;;;;;;5043353;28;20056;-48
2022/08/28 07:59:46;;;;;;;4.40;0.95;;;;;;;;;;5038501;28;20037;-47
2022/08/28 08:02:13;;;;;;;4.30;1.07;;;;;;;;;;5022100;28;20044;-46
2022/08/28 08:04:40;;;;;;;4.40;1.00;;;;;;;;;;5051128;28;20025;-47
2022/08/28 08:07:07;;;;;;;5.53;1.30;;;;;;;;;;5043382;28;20078;-46
2022/08/28 08:09:36;;;;;;;4.60;1.10;;;;;;;;;;5048301;28;20032;-45
2022/08/28 08:12:04;;;;;;;5.63;0.95;;;;;;;;;;5029121;28;20029;-44
2022/08/28 08:14:32;;;;;;;5.03;1.20;;;;;;;;;;5048202;28;20072;-45
2022/08/28 08:17:01;;;;;;;4.72;1.00;;;;;;;;;;5041115;28;21357;-48
2022/08/28 08:19:27;;;;;;;5.00;0.77;;;;;;;;;;5046373;28;20700;-48
2022/08/28 08:21:55;;;;;;;4.43;0.80;;;;;;;;;;5024329;28;20040;-46
2022/08/28 08:24:24;;;;;;;4.25;0.93;;;;;;;;;;5025487;28;20044;-44
2022/08/28 08:26:51;;;;;;;3.90;1.27;;;;;;;;;;5035736;28;20029;-44
2022/08/28 08:29:17;;;;;;;5.78;1.10;;;;;;;;;;5027356;28;20043;-45
2022/08/28 08:31:46;;;;;;;3.95;1.00;;;;;;;;;;5036428;28;20033;-45
2022/08/28 08:34:12;;;;;;;4.03;0.85;;;;;;;;;;5039493;28;20108;-45
2022/08/28 08:36:39;;;;;;;3.58;0.90;;;;;;;;;;5027886;28;20045;-44
2022/08/28 08:39:07;;;;;;;3.67;0.80;;;;;;;;;;5044889;28;20057;-45
2022/08/28 08:41:38;;;;;;;3.65;0.95;;;;;;;;;;5008773;28;20062;-46
2022/08/28 08:44:13;;;;;;;3.67;0.95;;;;;;;;;;5056512;28;20064;-44
2022/08/28 08:46:43;;;;;;;3.45;0.93;;;;;;;;;;5034621;28;20045;-46
2022/08/28 08:49:13;;;;;;;2.95;0.60;;;;;;;;;;5047767;28;20048;-46
2022/08/28 08:51:41;;;;;;;6.47;1.17;;;;;;;;;;5047882;28;20055;-47
2022/08/28 08:54:10;;;;;;;3.80;1.00;;;;;;;;;;5018018;28;20474;-43
2022/08/28 08:56:38;;;;;;;5.38;0.90;;;;;;;;;;5053955;28;20049;-46
2022/08/28 08:59:07;;;;;;;3.83;0.80;;;;;;;;;;5021178;28;20563;-46
2022/08/28 09:01:38;;;;;;;3.10;0.65;;;;;;;;;;5031726;28;20037;-45
2022/08/28 09:04:10;;;;;;;5.13;1.17;;;;;;;;;;5020657;28;20037;-47
2022/08/28 09:06:42;;;;;;;3.75;0.88;;;;;;;;;;5045589;28;20044;-45
2022/08/28 09:09:14;;;;;;;5.18;1.00;;;;;;;;;;5034648;28;20029;-46
2022/08/28 09:11:46;;;;;;;2.95;0.68;;;;;;;;;;5040547;28;20051;-44
2022/08/28 09:14:15;;;;;;;3.20;0.90;;;;;;;;;;5034640;28;20040;-46
2022/08/28 09:16:43;;;;;;;3.60;1.13;;;;;;;;;;5036721;28;20135;-45
2022/08/28 09:19:10;;;;;;;5.10;1.10;;;;;;;;;;5044948;28;20048;-46
2022/08/28 09:21:40;;;;;;;3.97;0.70;;;;;;;;;;5046867;28;20067;-46
2022/08/28 09:24:12;;;;;;;3.35;0.95;;;;;;;;;;5046622;28;20044;-46
2022/08/28 09:26:39;;;;;;;3.72;1.13;;;;;;;;;;5036113;28;20040;-46
2022/08/28 09:29:07;;;;;;;4.30;0.50;;;;;;;;;;5047229;28;20049;-47
2022/08/28 09:31:36;;;;;;;3.33;0.73;;;;;;;;;;5049946;28;20659;-46
2022/08/28 09:34:17;;;;;;;2.97;0.70;;;;;;;;;;5047314;28;20052;-45
2022/08/28 09:36:44;;;;;;;4.80;0.70;;;;;;;;;;5001814;28;20049;-45
2022/08/28 09:39:14;;;;;;;3.78;0.65;;;;;;;;;;5019283;28;20119;-45
2022/08/28 09:44:53;;;;;;;5.38;0.75;;;;;;;;;;5034477;28;20056;-45
2022/08/28 09:47:40;;;;;;;3.05;0.70;;;;;;;;;;5046326;28;20043;-45
2022/08/28 09:50:24;;;;;;;3.35;0.85;;;;;;;;;;5038996;28;20051;-45
2022/08/28 09:52:51;;;;;;;2.95;0.60;;;;;;;;;;5030396;28;20041;-47
2022/08/28 09:55:23;;;;;;;3.40;0.90;;;;;;;;;;5038980;28;20036;-49
2022/08/28 09:57:50;;;;;;;3.38;0.90;;;;;;;;;;5018822;28;20037;-47
2022/08/28 10:00:16;;;;;;;3.03;0.50;;;;;;;;;;5046383;28;20044;-48
2022/08/28 10:02:45;;;;;;;3.05;0.70;;;;;;;;;;5037186;28;20105;-44
2022/08/28 10:05:15;;;;;;;3.40;0.98;;;;;;;;;;5044884;28;20040;-43
2022/08/28 10:07:45;;;;;;;3.80;0.90;;;;;;;;;;5035125;28;20079;-47
2022/08/28 10:10:17;;;;;;;4.70;0.60;;;;;;;;;;5037834;28;20120;-47
2022/08/28 10:12:48;;;;;;;2.85;0.73;;;;;;;;;;5049236;28;20044;-47
2022/08/28 10:15:16;;;;;;;3.63;0.60;;;;;;;;;;5037917;28;20837;-44
2022/08/28 10:17:50;;;;;;;2.45;0.50;;;;;;;;;;5045626;28;20041;-45
2022/08/28 10:20:19;;;;;;;2.30;0.67;;;;;;;;;;5019967;28;20041;-46
2022/08/28 10:22:51;;;;;;;2.47;0.55;;;;;;;;;;5041586;28;20055;-43
2022/08/28 10:25:22;;;;;;;2.90;0.57;;;;;;;;;;5026883;28;20044;-44
2022/08/28 10:27:57;;;;;;;5.47;0.60;;;;;;;;;;5039173;28;20039;-46
2022/08/28 10:30:24;;;;;;;2.53;0.70;;;;;;;;;;5033078;28;20506;-44
2022/08/28 10:33:09;;;;;;;3.83;0.90;;;;;;;;;;5041326;28;20047;-49
2022/08/28 10:35:43;;;;;;;3.70;0.85;;;;;;;;;;5022068;28;20045;-45
2022/08/28 10:38:12;;;;;;;2.72;0.60;;;;;;;;;;5014767;28;20028;-46
2022/08/28 10:40:39;;;;;;;2.80;0.32;;;;;;;;;;5047819;28;20036;-44
2022/08/28 10:43:10;;;;;;;2.67;0.60;;;;;;;;;;5041378;28;20045;-45
2022/08/28 10:45:37;;;;;;;3.90;0.80;;;;;;;;;;5027572;28;20041;-46
2022/08/28 10:48:06;;;;;;;5.65;0.95;;;;;;;;;;5038802;28;20044;-47
2022/08/28 10:50:38;;;;;;;3.30;1.25;;;;;;;;;;5043442;28;20044;-44
2022/08/28 10:53:06;;;;;;;3.00;0.50;;;;;;;;;;5049281;28;20563;-44
2022/08/28 10:55:36;;;;;;;3.47;0.50;;;;;;;;;;5034070;28;20114;-46
2022/08/28 10:58:04;;;;;;;4.00;0.70;;;;;;;;;;5038607;28;20041;-45
2022/08/28 11:00:37;;;;;;;2.80;0.55;;;;;;;;;;5040799;28;20406;-47
2022/08/28 11:03:06;;;;;;;2.55;0.70;;;;;;;;;;5054995;28;20437;-44
2022/08/28 11:05:36;;;;;;;2.75;0.70;;;;;;;;;;5019626;28;20529;-46
2022/08/28 11:08:05;;;;;;;3.08;0.70;;;;;;;;;;5028793;28;20887;-46
2022/08/28 11:10:44;;;;;;;2.80;0.60;;;;;;;;;;5042078;28;20040;-47
2022/08/28 11:13:11;;;;;;;2.45;0.50;;;;;;;;;;5049606;28;20036;-48
2022/08/28 11:15:52;;;;;;;2.75;0.70;;;;;;;;;;5030945;28;20041;-47
2022/08/28 11:18:39;;;;;;;3.88;0.82;;;;;;;;;;5042043;28;20498;-47
2022/08/28 11:21:09;;;;;;;3.65;0.70;;;;;;;;;;5039610;28;20041;-49
2022/08/28 11:23:38;;;;;;;3.20;0.80;;;;;;;;;;5031144;28;20544;-47
2022/08/28 11:26:07;;;;;;;4.68;1.40;;;;;;;;;;5042860;28;20041;-45
2022/08/28 11:28:41;;;;;;;3.72;0.73;;;;;;;;;;5041963;28;20040;-45
2022/08/28 11:31:27;;;;;;;3.10;0.80;;;;;;;;;;5016457;28;20155;-45
2022/08/28 11:33:57;;;;;;;4.03;0.70;;;;;;;;;;5048247;28;20114;-46
2022/08/28 11:36:42;;;;;;;2.63;0.60;;;;;;;;;;5024091;28;20064;-49
2022/08/28 11:39:18;;;;;;;3.00;0.80;;;;;;;;;;5051079;28;20300;-47
2022/08/28 11:42:00;;;;;;;3.28;0.90;;;;;;;;;;5040784;28;20029;-50
2022/08/28 11:44:28;;;;;;;3.30;0.80;;;;;;;;;;5041984;28;20123;-48
2022/08/28 11:46:57;;;;;;;3.65;1.60;;;;;;;;;;5040669;28;20045;-45
2022/08/28 11:49:43;;;;;;;3.23;0.70;;;;;;;;;;5038400;28;20325;-47
2022/08/28 11:52:18;;;;;;;3.92;0.70;;;;;;;;;;5050797;28;20169;-47
2022/08/28 11:54:47;;;;;;;3.95;0.70;;;;;;;;;;5021503;28;20036;-50
2022/08/28 11:57:14;;;;;;;4.00;0.77;;;;;;;;;;5058627;28;21835;-45
2022/08/28 11:59:52;;;;;;;2.90;0.60;;;;;;;;;;5018209;28;20107;-45
2022/08/28 12:02:37;;;;;;;2.80;0.63;;;;;;;;;;5042480;28;20318;-47
2022/08/28 12:05:07;;;;;;;4.45;0.98;;;;;;;;;;5020998;28;20117;-50
2022/08/28 12:07:35;;;;;;;3.20;0.70;;;;;;;;;;5040977;28;20078;-48
2022/08/28 12:10:02;;;;;;;2.58;0.75;;;;;;;;;;5038574;28;20033;-48
2022/08/28 12:12:52;;;;;;;3.33;0.70;;;;;;;;;;5039877;28;20037;-44
2022/08/28 12:15:34;;;;;;;3.53;0.97;;;;;;;;;;5015938;28;20377;-45
2022/08/28 12:18:01;;;;;;;2.95;0.90;;;;;;;;;;5050450;28;20098;-46
2022/08/28 12:20:35;;;;;;;4.03;0.80;;;;;;;;;;5045691;28;20094;-46
2022/08/28 12:23:03;;;;;;;8.27;0.70;;;;;;;;;;5053543;28;20422;-45
2022/08/28 12:25:32;;;;;;;3.83;0.98;;;;;;;;;;5036269;28;20037;-44
2022/08/28 12:28:02;;;;;;;2.97;0.70;;;;;;;;;;5031165;28;20109;-45
2022/08/28 12:30:30;;;;;;;5.45;0.95;;;;;;;;;;5034495;28;20213;-45
2022/08/28 12:33:02;;;;;;;3.25;0.88;;;;;;;;;;5047227;28;20048;-46
2022/08/28 12:35:29;;;;;;;3.78;0.90;;;;;;;;;;5048108;28;20051;-46
2022/08/28 12:38:02;;;;;;;5.13;0.90;;;;;;;;;;5015547;28;20044;-45
2022/08/28 12:40:29;;;;;;;4.27;1.30;;;;;;;;;;5046614;28;20044;-44
2022/08/28 12:42:57;;;;;;;4.78;0.88;;;;;;;;;;5043432;28;20036;-45
2022/08/28 12:45:26;;;;;;;3.28;0.40;;;;;;;;;;5046545;28;20098;-47
2022/08/28 12:47:55;;;;;;;3.30;0.88;;;;;;;;;;5030382;28;20075;-47
2022/08/28 12:50:26;;;;;;;4.18;0.80;;;;;;;;;;5033040;28;20041;-44
2022/08/28 12:52:54;;;;;;;3.30;0.50;;;;;;;;;;5040206;28;20244;-48
2022/08/28 12:55:23;;;;;;;7.25;0.80;;;;;;;;;;5051759;28;20035;-48
2022/08/28 12:57:50;;;;;;;4.53;0.73;;;;;;;;;;5017043;28;20132;-45
2022/08/28 13:00:18;;;;;;;3.45;0.90;;;;;;;;;;5047260;28;20040;-44
2022/08/28 13:02:45;;;;;;;5.05;0.90;;;;;;;;;;5014900;28;20505;-48
2022/08/28 13:05:22;;;;;;;2.93;0.80;;;;;;;;;;5025282;28;20843;-44
2022/08/28 13:07:49;;;;;;;3.40;0.88;;;;;;;;;;5046821;28;20033;-46
2022/08/28 13:10:20;;;;;;;2.90;0.82;;;;;;;;;;5039004;28;20036;-46
2022/08/28 13:12:52;;;;;;;3.30;1.00;;;;;;;;;;5036410;28;20036;-44
2022/08/28 13:15:33;;;;;;;2.70;0.70;;;;;;;;;;5028087;28;20895;-46
2022/08/28 13:17:59;;;;;;;2.80;0.70;;;;;;;;;;5043641;28;20514;-47
2022/08/28 13:20:27;;;;;;;3.97;0.60;;;;;;;;;;5052091;28;20550;-45
2022/08/28 13:22:53;;;;;;;3.22;0.80;;;;;;;;;;5031729;28;20056;-48
2022/08/28 13:25:21;;;;;;;4.30;1.10;;;;;;;;;;5046553;28;20040;-45
2022/08/28 13:27:56;;;;;;;2.50;0.60;;;;;;;;;;5051733;28;20047;-46
2022/08/28 13:30:24;;;;;;;4.30;0.90;;;;;;;;;;5051287;28;20056;-48
2022/08/28 13:32:55;;;;;;;2.90;0.82;;;;;;;;;;5039708;28;20429;-44
2022/08/28 13:35:30;;;;;;;3.40;0.75;;;;;;;;;;5039886;28;20101;-45
2022/08/28 13:37:58;;;;;;;4.10;1.25;;;;;;;;;;5029556;28;20049;-46
2022/08/28 13:40:26;;;;;;;4.25;0.90;;;;;;;;;;5052736;28;20102;-47
2022/08/28 13:42:55;;;;;;;6.17;1.40;;;;;;;;;;5033111;28;20044;-49
2022/08/28 13:45:23;;;;;;;4.10;1.38;;;;;;;;;;5046766;28;20076;-45
2022/08/28 13:47:49;;;;;;;5.00;1.33;;;;;;;;;;5043995;28;20051;-47
2022/08/28 13:50:16;;;;;;;4.78;1.15;;;;;;;;;;5034579;28;20052;-46
2022/08/28 13:52:42;;;;;;;2.67;0.45;;;;;;;;;;5012890;28;20052;-46
2022/08/28 13:55:10;;;;;;;3.10;0.70;;;;;;;;;;5023868;28;20056;-47
2022/08/28 13:57:36;;;;;;;4.47;1.00;;;;;;;;;;5003763;28;20044;-47
2022/08/28 14:00:04;;;;;;;3.65;0.90;;;;;;;;;;5029476;28;20044;-45
2022/08/28 14:05:17;;;;;;;4.55;0.88;;;;;;;;;;5025859;28;20048;-46
2022/08/28 14:07:43;;;;;;;3.90;0.70;;;;;;;;;;5013760;28;20503;-47
2022/08/28 14:10:10;;;;;;;3.20;0.95;;;;;;;;;;5011421;28;20082;-46
2022/08/28 14:12:36;;;;;;;4.10;0.80;;;;;;;;;;5019785;28;20045;-45
2022/08/28 14:15:04;;;;;;;3.60;0.73;;;;;;;;;;5002205;28;20041;-45
2022/08/28 14:17:32;;;;;;;2.60;0.68;;;;;;;;;;5019663;28;20055;-48
2022/08/28 14:20:00;;;;;;;3.80;0.80;;;;;;;;;;5021342;28;20057;-49
2022/08/28 14:22:27;;;;;;;3.25;0.95;;;;;;;;;;5025183;28;20037;-47
2022/08/28 14:24:54;;;;;;;3.33;0.73;;;;;;;;;;5027267;28;20681;-45
2022/08/28 14:27:20;;;;;;;2.88;0.70;;;;;;;;;;5029846;28;20078;-44
2022/08/28 14:29:47;;;;;;;3.35;0.75;;;;;;;;;;5008924;28;20041;-46
2022/08/28 14:32:14;;;;;;;3.30;0.70;;;;;;;;;;5006272;28;20454;-44
2022/08/28 14:34:43;;;;;;;2.38;0.60;;;;;;;;;;5011619;28;20068;-50
2022/08/28 14:37:09;;;;;;;3.58;1.00;;;;;;;;;;5020968;28;20032;-46
2022/08/28 14:39:36;;;;;;;3.25;0.70;;;;;;;;;;5017463;28;20041;-44
2022/08/28 14:42:03;;;;;;;4.25;0.75;;;;;;;;;;5019403;28;20102;-49
2022/08/28 14:44:30;;;;;;;4.03;0.90;;;;;;;;;;5027018;28;20052;-49
2022/08/28 14:46:56;;;;;;;3.88;0.90;;;;;;;;;;5017084;28;20041;-47
2022/08/28 14:49:23;;;;;;;3.13;0.60;;;;;;;;;;5011285;28;20041;-48
2022/08/28 14:51:51;;;;;;;3.55;0.60;;;;;;;;;;4986410;28;20033;-49
2022/08/28 14:54:19;;;;;;;2.80;0.60;;;;;;;;;;5018983;28;20183;-44
2022/08/28 14:56:46;;;;;;;2.70;0.60;;;;;;;;;;5017612;28;20048;-47
2022/08/28 14:59:14;;;;;;;4.25;0.90;;;;;;;;;;5009748;28;20537;-47